sensor_id;sensor_type;location;lat;lon;timestamp;pressure;altitude;pressure_sealevel;temperature;humidity
59513;BME280;45330;51.634;5.562;2023-04-08T00:00:31;102152.03;;;7.31;100.00
59513;BME280;45330;51.634;5.562;2023-04-08T00:02:56;102162.41;;;7.31;100.00
59513;BME280;45330;51.634;5.562;2023-04-08T00:05:21;102167.50;;;7.28;100.00
59513;BME280;45330;51.634;5.562;2023-04-08T00:07:47;102170.78;;;7.22;100.00
59513;BME280;45330;51.634;5.562;2023-04-08T00:10:12;102171.66;;;7.22;100.00
59513;BME280;45330;51.634;5.562;2023-04-08T00:12:38;102171.63;;;7.21;100.00
59513;BME280;45330;51.634;5.562;2023-04-08T00:15:03;102174.25;;;7.22;100.00
59513;BME280;45330;51.634;5.562;2023-04-08T00:17:29;102165.53;;;7.19;100.00
59513;BME280;45330;51.634;5.562;2023-04-08T00:19:55;102174.19;;;7.21;100.00
59513;BME280;45330;51.634;5.562;2023-04-08T00:22:20;102169.72;;;7.15;100.00
59513;BME280;45330;51.634;5.562;2023-04-08T00:24:46;102161.19;;;7.18;100.00
59513;BME280;45330;51.634;5.562;2023-04-08T00:27:11;102168.81;;;7.13;100.00
59513;BME280;45330;51.634;5.562;2023-04-08T00:29:37;102149.59;;;7.05;100.00
59513;BME280;45330;51.634;5.562;2023-04-08T00:32:02;102167.00;;;7.11;100.00
59513;BME280;45330;51.634;5.562;2023-04-08T00:34:28;102175.81;;;7.16;100.00
59513;BME280;45330;51.634;5.562;2023-04-08T00:36:53;102177.56;;;7.18;100.00
59513;BME280;45330;51.634;5.562;2023-04-08T00:39:18;102161.88;;;7.12;100.00
59513;BME280;45330;51.634;5.562;2023-04-08T00:41:44;102174.13;;;7.18;100.00
59513;BME280;45330;51.634;5.562;2023-04-08T00:44:09;102174.94;;;7.17;100.00
59513;BME280;45330;51.634;5.562;2023-04-08T00:46:38;102155.59;;;7.04;100.00
59513;BME280;45330;51.634;5.562;2023-04-08T00:49:04;102180.97;;;7.16;100.00
59513;BME280;45330;51.634;5.562;2023-04-08T00:51:30;102180.06;;;7.15;100.00
59513;BME280;45330;51.634;5.562;2023-04-08T00:53:56;102163.41;;;7.06;100.00
59513;BME280;45330;51.634;5.562;2023-04-08T00:56:22;102160.84;;;7.07;100.00
59513;BME280;45330;51.634;5.562;2023-04-08T00:58:49;102177.44;;;7.14;100.00
59513;BME280;45330;51.634;5.562;2023-04-08T01:01:25;102165.06;;;7.03;100.00
59513;BME280;45330;51.634;5.562;2023-04-08T01:09:09;102188.63;;;7.13;100.00
59513;BME280;45330;51.634;5.562;2023-04-08T01:11:37;102190.31;;;7.11;100.00
59513;BME280;45330;51.634;5.562;2023-04-08T01:14:06;102162.25;;;6.96;100.00
59513;BME280;45330;51.634;5.562;2023-04-08T01:16:36;102182.50;;;7.09;100.00
59513;BME280;45330;51.634;5.562;2023-04-08T01:19:05;102184.38;;;7.15;100.00
59513;BME280;45330;51.634;5.562;2023-04-08T01:21:32;102181.81;;;7.15;100.00
59513;BME280;45330;51.634;5.562;2023-04-08T01:24:07;102181.75;;;7.13;100.00
59513;BME280;45330;51.634;5.562;2023-04-08T01:26:35;102152.88;;;6.99;100.00
59513;BME280;45330;51.634;5.562;2023-04-08T01:29:01;102172.06;;;7.06;100.00
59513;BME280;45330;51.634;5.562;2023-04-08T01:31:27;102168.63;;;7.07;100.00
59513;BME280;45330;51.634;5.562;2023-04-08T01:33:55;102186.03;;;7.13;100.00
59513;BME280;45330;51.634;5.562;2023-04-08T01:36:23;102186.94;;;7.13;100.00
59513;BME280;45330;51.634;5.562;2023-04-08T01:38:49;102181.81;;;7.15;100.00
59513;BME280;45330;51.634;5.562;2023-04-08T01:41:16;102186.97;;;7.15;100.00
59513;BME280;45330;51.634;5.562;2023-04-08T01:43:43;102200.88;;;7.18;100.00
59513;BME280;45330;51.634;5.562;2023-04-08T01:46:10;102186.91;;;7.12;100.00
59513;BME280;45330;51.634;5.562;2023-04-08T01:48:37;102197.59;;;7.24;100.00
59513;BME280;45330;51.634;5.562;2023-04-08T01:51:04;102198.44;;;7.23;100.00
59513;BME280;45330;51.634;5.562;2023-04-08T01:53:30;102174.91;;;7.15;100.00
59513;BME280;45330;51.634;5.562;2023-04-08T01:56:05;102195.81;;;7.21;100.00
59513;BME280;45330;51.634;5.562;2023-04-08T01:58:37;102182.50;;;7.09;100.00
59513;BME280;45330;51.634;5.562;2023-04-08T02:01:05;102195.66;;;7.17;100.00
59513;BME280;45330;51.634;5.562;2023-04-08T02:03:35;102182.41;;;7.06;100.00
59513;BME280;45330;51.634;5.562;2023-04-08T02:06:00;102187.75;;;7.12;100.00
59513;BME280;45330;51.634;5.562;2023-04-08T02:08:26;102202.72;;;7.22;100.00
59513;BME280;45330;51.634;5.562;2023-04-08T02:10:51;102195.69;;;7.18;100.00
59513;BME280;45330;51.634;5.562;2023-04-08T02:13:17;102194.00;;;7.19;100.00
59513;BME280;45330;51.634;5.562;2023-04-08T02:15:48;102201.03;;;7.23;100.00
59513;BME280;45330;51.634;5.562;2023-04-08T02:18:16;102211.44;;;7.25;100.00
59513;BME280;45330;51.634;5.562;2023-04-08T02:20:56;102212.31;;;7.25;100.00
59513;BME280;45330;51.634;5.562;2023-04-08T02:23:26;102201.53;;;7.11;100.00
59513;BME280;45330;51.634;5.562;2023-04-08T02:25:55;102213.13;;;7.24;100.00
59513;BME280;45330;51.634;5.562;2023-04-08T02:28:21;102207.72;;;7.16;100.00
59513;BME280;45330;51.634;5.562;2023-04-08T02:30:50;102212.03;;;7.16;100.00
59513;BME280;45330;51.634;5.562;2023-04-08T02:33:20;102214.47;;;7.11;100.00
59513;BME280;45330;51.634;5.562;2023-04-08T02:35:48;102210.94;;;7.08;100.00
59513;BME280;45330;51.634;5.562;2023-04-08T02:38:14;102212.63;;;7.07;100.00
59513;BME280;45330;51.634;5.562;2023-04-08T02:40:40;102194.00;;;6.90;100.00
59513;BME280;45330;51.634;5.562;2023-04-08T02:43:05;102197.94;;;6.79;100.00
59513;BME280;45330;51.634;5.562;2023-04-08T02:45:36;102196.00;;;6.72;100.00
59513;BME280;45330;51.634;5.562;2023-04-08T02:48:03;102188.53;;;6.53;100.00
59513;BME280;45330;51.634;5.562;2023-04-08T02:50:29;102225.28;;;6.70;100.00
59513;BME280;45330;51.634;5.562;2023-04-08T02:52:54;102223.56;;;6.69;100.00
59513;BME280;45330;51.634;5.562;2023-04-08T02:55:20;102224.28;;;6.65;100.00
59513;BME280;45330;51.634;5.562;2023-04-08T02:57:46;102194.28;;;6.45;100.00
59513;BME280;45330;51.634;5.562;2023-04-08T03:00:12;102224.06;;;6.59;100.00
59513;BME280;45330;51.634;5.562;2023-04-08T03:02:38;102202.91;;;6.45;100.00
59513;BME280;45330;51.634;5.562;2023-04-08T03:05:03;102224.59;;;6.49;100.00
59513;BME280;45330;51.634;5.562;2023-04-08T03:07:30;102213.06;;;6.39;100.00
59513;BME280;45330;51.634;5.562;2023-04-08T03:09:55;102193.63;;;6.25;100.00
59513;BME280;45330;51.634;5.562;2023-04-08T03:12:21;102213.13;;;6.41;100.00
59513;BME280;45330;51.634;5.562;2023-04-08T03:14:48;102220.28;;;6.49;100.00
59513;BME280;45330;51.634;5.562;2023-04-08T03:17:13;102186.22;;;6.35;100.00
59513;BME280;45330;51.634;5.562;2023-04-08T03:19:39;102195.75;;;6.37;100.00
59513;BME280;45330;51.634;5.562;2023-04-08T03:22:05;102214.16;;;6.46;100.00
59513;BME280;45330;51.634;5.562;2023-04-08T03:24:30;102212.44;;;6.46;100.00
59513;BME280;45330;51.634;5.562;2023-04-08T03:26:55;102192.34;;;6.38;100.00
59513;BME280;45330;51.634;5.562;2023-04-08T03:29:21;102220.28;;;6.49;100.00
59513;BME280;45330;51.634;5.562;2023-04-08T03:31:46;102223.59;;;6.45;100.00
59513;BME280;45330;51.634;5.562;2023-04-08T03:34:12;102220.16;;;6.45;100.00
59513;BME280;45330;51.634;5.562;2023-04-08T03:36:37;102199.69;;;6.25;100.00
59513;BME280;45330;51.634;5.562;2023-04-08T03:39:02;102197.81;;;6.21;100.00
59513;BME280;45330;51.634;5.562;2023-04-08T03:41:28;102220.56;;;6.31;100.00
59513;BME280;45330;51.634;5.562;2023-04-08T03:43:54;102226.41;;;6.26;100.00
59513;BME280;45330;51.634;5.562;2023-04-08T03:46:19;102193.75;;;6.02;100.00
59513;BME280;45330;51.634;5.562;2023-04-08T03:48:44;102218.88;;;6.06;100.00
59513;BME280;45330;51.634;5.562;2023-04-08T03:51:10;102204.28;;;5.84;100.00
59513;BME280;45330;51.634;5.562;2023-04-08T03:53:35;102225.16;;;5.90;100.00
59513;BME280;45330;51.634;5.562;2023-04-08T03:56:00;102239.84;;;5.91;100.00
59513;BME280;45330;51.634;5.562;2023-04-08T03:58:27;102239.63;;;5.85;100.00
59513;BME280;45330;51.634;5.562;2023-04-08T04:00:53;102218.28;;;5.66;100.00
59513;BME280;45330;51.634;5.562;2023-04-08T04:03:18;102243.38;;;5.71;100.00
59513;BME280;45330;51.634;5.562;2023-04-08T04:05:43;102212.78;;;5.57;100.00
59513;BME280;45330;51.634;5.562;2023-04-08T04:08:09;102221.56;;;5.62;100.00
59513;BME280;45330;51.634;5.562;2023-04-08T04:10:34;102245.50;;;5.81;100.00
59513;BME280;45330;51.634;5.562;2023-04-08T04:13:00;102222.97;;;5.77;100.00
59513;BME280;45330;51.634;5.562;2023-04-08T04:15:26;102227.72;;;5.90;100.00
59513;BME280;45330;51.634;5.562;2023-04-08T04:17:51;102216.47;;;5.88;100.00
59513;BME280;45330;51.634;5.562;2023-04-08T04:20:17;102250.78;;;6.08;100.00
59513;BME280;45330;51.634;5.562;2023-04-08T04:22:43;102224.56;;;5.97;100.00
59513;BME280;45330;51.634;5.562;2023-04-08T04:25:08;102257.06;;;6.15;100.00
59513;BME280;45330;51.634;5.562;2023-04-08T04:27:34;102235.25;;;6.07;100.00
59513;BME280;45330;51.634;5.562;2023-04-08T04:30:01;102254.69;;;6.21;100.00
59513;BME280;45330;51.634;5.562;2023-04-08T04:32:27;102241.50;;;6.13;100.00
59513;BME280;45330;51.634;5.562;2023-04-08T04:34:52;102269.41;;;6.24;100.00
59513;BME280;45330;51.634;5.562;2023-04-08T04:37:18;102243.25;;;6.14;100.00
59513;BME280;45330;51.634;5.562;2023-04-08T04:39:43;102244.91;;;6.12;100.00
59513;BME280;45330;51.634;5.562;2023-04-08T04:42:08;102256.41;;;6.21;100.00
59513;BME280;45330;51.634;5.562;2023-04-08T04:44:34;102281.81;;;6.34;100.00
59513;BME280;45330;51.634;5.562;2023-04-08T04:46:59;102284.41;;;6.34;100.00
59513;BME280;45330;51.634;5.562;2023-04-08T04:49:25;102265.25;;;6.27;100.00
59513;BME280;45330;51.634;5.562;2023-04-08T04:51:50;102279.25;;;6.34;100.00
59513;BME280;45330;51.634;5.562;2023-04-08T04:54:15;102255.69;;;6.25;100.00
59513;BME280;45330;51.634;5.562;2023-04-08T04:56:41;102268.03;;;6.33;100.00
59513;BME280;45330;51.634;5.562;2023-04-08T04:59:06;102280.34;;;6.41;100.00
59513;BME280;45330;51.634;5.562;2023-04-08T05:01:32;102269.84;;;6.36;100.00
59513;BME280;45330;51.634;5.562;2023-04-08T05:03:58;102273.31;;;6.37;100.00
59513;BME280;45330;51.634;5.562;2023-04-08T05:06:23;102268.19;;;6.38;100.00
59513;BME280;45330;51.634;5.562;2023-04-08T05:08:48;102305.69;;;6.51;100.00
59513;BME280;45330;51.634;5.562;2023-04-08T05:11:15;102293.47;;;6.47;100.00
59513;BME280;45330;51.634;5.562;2023-04-08T05:13:42;102297.06;;;6.50;100.00
59513;BME280;45330;51.634;5.562;2023-04-08T05:16:08;102303.91;;;6.48;100.00
59513;BME280;45330;51.634;5.562;2023-04-08T05:18:33;102287.31;;;6.43;100.00
59513;BME280;45330;51.634;5.562;2023-04-08T05:20:59;102278.63;;;6.41;100.00
59513;BME280;45330;51.634;5.562;2023-04-08T05:23:24;102278.56;;;6.40;100.00
59513;BME280;45330;51.634;5.562;2023-04-08T05:25:49;102295.22;;;6.48;100.00
59513;BME280;45330;51.634;5.562;2023-04-08T05:28:15;102308.41;;;6.54;100.00
59513;BME280;45330;51.634;5.562;2023-04-08T05:30:40;102300.41;;;6.48;100.00
59513;BME280;45330;51.634;5.562;2023-04-08T05:33:06;102313.75;;;6.60;100.00
59513;BME280;45330;51.634;5.562;2023-04-08T05:35:31;102315.69;;;6.66;100.00
59513;BME280;45330;51.634;5.562;2023-04-08T05:37:57;102310.34;;;6.61;100.00
59513;BME280;45330;51.634;5.562;2023-04-08T05:40:22;102302.38;;;6.55;100.00
59513;BME280;45330;51.634;5.562;2023-04-08T05:42:48;102299.69;;;6.52;100.00
59513;BME280;45330;51.634;5.562;2023-04-08T05:45:13;102325.78;;;6.58;100.00
59513;BME280;45330;51.634;5.562;2023-04-08T05:47:38;102317.69;;;6.49;100.00
59513;BME280;45330;51.634;5.562;2023-04-08T05:50:04;102315.34;;;6.57;100.00
59513;BME280;45330;51.634;5.562;2023-04-08T05:52:30;102310.84;;;6.51;100.00
59513;BME280;45330;51.634;5.562;2023-04-08T05:54:55;102305.09;;;6.58;100.00
59513;BME280;45330;51.634;5.562;2023-04-08T05:57:21;102311.22;;;6.62;100.00
59513;BME280;45330;51.634;5.562;2023-04-08T05:59:46;102320.03;;;6.67;100.00
59513;BME280;45330;51.634;5.562;2023-04-08T06:02:12;102335.75;;;6.73;100.00
59513;BME280;45330;51.634;5.562;2023-04-08T06:04:37;102340.00;;;6.71;100.00
59513;BME280;45330;51.634;5.562;2023-04-08T06:07:03;102340.78;;;6.68;100.00
59513;BME280;45330;51.634;5.562;2023-04-08T06:09:33;102327.31;;;6.53;100.00
59513;BME280;45330;51.634;5.562;2023-04-08T06:11:58;102320.44;;;6.53;100.00
59513;BME280;45330;51.634;5.562;2023-04-08T06:14:23;102345.13;;;6.69;100.00
59513;BME280;45330;51.634;5.562;2023-04-08T06:16:49;102339.00;;;6.67;100.00
59513;BME280;45330;51.634;5.562;2023-04-08T06:19:14;102343.50;;;6.73;100.00
59513;BME280;45330;51.634;5.562;2023-04-08T06:21:40;102349.59;;;6.74;100.00
59513;BME280;45330;51.634;5.562;2023-04-08T06:24:05;102332.13;;;6.68;100.00
59513;BME280;45330;51.634;5.562;2023-04-08T06:26:31;102356.50;;;6.75;100.00
59513;BME280;45330;51.634;5.562;2023-04-08T06:28:57;102336.41;;;6.67;100.00
59513;BME280;45330;51.634;5.562;2023-04-08T06:31:22;102348.91;;;6.79;100.00
59513;BME280;45330;51.634;5.562;2023-04-08T06:33:48;102324.31;;;6.66;100.00
59513;BME280;45330;51.634;5.562;2023-04-08T06:36:14;102355.19;;;6.87;100.00
59513;BME280;45330;51.634;5.562;2023-04-08T06:38:40;102335.78;;;6.75;100.00
59513;BME280;45330;51.634;5.562;2023-04-08T06:41:06;102350.56;;;6.77;100.00
59513;BME280;45330;51.634;5.562;2023-04-08T06:43:32;102368.13;;;6.87;100.00
59513;BME280;45330;51.634;5.562;2023-04-08T06:45:58;102349.69;;;6.77;100.00
59513;BME280;45330;51.634;5.562;2023-04-08T06:48:24;102347.75;;;6.71;100.00
59513;BME280;45330;51.634;5.562;2023-04-08T06:50:59;102353.00;;;6.73;100.00
59513;BME280;45330;51.634;5.562;2023-04-08T06:53:26;102352.91;;;6.69;100.00
59513;BME280;45330;51.634;5.562;2023-04-08T06:55:53;102375.91;;;6.87;100.00
59513;BME280;45330;51.634;5.562;2023-04-08T06:58:19;102376.63;;;6.83;100.00
59513;BME280;45330;51.634;5.562;2023-04-08T07:00:44;102384.22;;;6.79;100.00
59513;BME280;45330;51.634;5.562;2023-04-08T07:03:09;102380.72;;;6.77;100.00
59513;BME280;45330;51.634;5.562;2023-04-08T07:05:35;102393.72;;;6.78;100.00
59513;BME280;45330;51.634;5.562;2023-04-08T07:08:01;102376.75;;;6.62;100.00
59513;BME280;45330;51.634;5.562;2023-04-08T07:10:27;102406.84;;;6.84;100.00
59513;BME280;45330;51.634;5.562;2023-04-08T07:12:53;102407.66;;;6.83;100.00
59513;BME280;45330;51.634;5.562;2023-04-08T07:15:18;102379.53;;;6.67;100.00
59513;BME280;45330;51.634;5.562;2023-04-08T07:17:43;102387.44;;;6.72;100.00
59513;BME280;45330;51.634;5.562;2023-04-08T07:20:09;102391.69;;;6.69;100.00
59513;BME280;45330;51.634;5.562;2023-04-08T07:22:35;102416.72;;;6.95;100.00
59513;BME280;45330;51.634;5.562;2023-04-08T07:25:00;102402.88;;;6.94;100.00
59513;BME280;45330;51.634;5.562;2023-04-08T07:27:27;102408.34;;;6.78;100.00
59513;BME280;45330;51.634;5.562;2023-04-08T07:29:52;102396.16;;;6.74;100.00
59513;BME280;45330;51.634;5.562;2023-04-08T07:32:21;102425.38;;;6.97;100.00
59513;BME280;45330;51.634;5.562;2023-04-08T07:34:47;102427.06;;;6.95;100.00
59513;BME280;45330;51.634;5.562;2023-04-08T07:37:12;102408.75;;;6.90;100.00
59513;BME280;45330;51.634;5.562;2023-04-08T07:39:37;102411.16;;;6.84;100.00
59513;BME280;45330;51.634;5.562;2023-04-08T07:42:03;102429.03;;;6.78;100.00
59513;BME280;45330;51.634;5.562;2023-04-08T07:44:28;102405.66;;;6.75;100.00
59513;BME280;45330;51.634;5.562;2023-04-08T07:46:53;102419.47;;;6.75;100.00
59513;BME280;45330;51.634;5.562;2023-04-08T07:49:19;102439.16;;;6.96;100.00
59513;BME280;45330;51.634;5.562;2023-04-08T07:51:45;102422.75;;;6.95;100.00
59513;BME280;45330;51.634;5.562;2023-04-08T07:54:10;102444.91;;;7.13;100.00
59513;BME280;45330;51.634;5.562;2023-04-08T07:56:36;102425.88;;;7.11;100.00
59513;BME280;45330;51.634;5.562;2023-04-08T07:59:07;102424.91;;;7.09;100.00
59513;BME280;45330;51.634;5.562;2023-04-08T08:01:32;102436.63;;;7.23;100.00
59513;BME280;45330;51.634;5.562;2023-04-08T08:03:59;102430.97;;;7.35;100.00
59513;BME280;45330;51.634;5.562;2023-04-08T08:06:25;102451.09;;;7.44;100.00
59513;BME280;45330;51.634;5.562;2023-04-08T08:08:51;102422.44;;;7.37;100.00
59513;BME280;45330;51.634;5.562;2023-04-08T08:11:17;102450.56;;;7.52;100.00
59513;BME280;45330;51.634;5.562;2023-04-08T08:13:42;102450.69;;;7.57;100.00
59513;BME280;45330;51.634;5.562;2023-04-08T08:16:08;102433.25;;;7.51;100.00
59513;BME280;45330;51.634;5.562;2023-04-08T08:18:36;102425.69;;;7.59;100.00
59513;BME280;45330;51.634;5.562;2023-04-08T08:21:02;102433.50;;;7.61;100.00
59513;BME280;45330;51.634;5.562;2023-04-08T08:23:27;102435.31;;;7.63;100.00
59513;BME280;45330;51.634;5.562;2023-04-08T08:26:04;102463.09;;;7.95;100.00
59513;BME280;45330;51.634;5.562;2023-04-08T08:28:30;102437.41;;;7.73;100.00
59513;BME280;45330;51.634;5.562;2023-04-08T08:30:56;102458.41;;;7.83;100.00
59513;BME280;45330;51.634;5.562;2023-04-08T08:33:21;102467.22;;;7.88;100.00
59513;BME280;45330;51.634;5.562;2023-04-08T08:35:47;102467.25;;;7.89;100.00
59513;BME280;45330;51.634;5.562;2023-04-08T08:38:12;102472.66;;;7.97;100.00
59513;BME280;45330;51.634;5.562;2023-04-08T08:40:38;102481.16;;;7.93;100.00
59513;BME280;45330;51.634;5.562;2023-04-08T08:43:03;102476.88;;;7.94;100.00
59513;BME280;45330;51.634;5.562;2023-04-08T08:45:29;102479.69;;;8.01;100.00
59513;BME280;45330;51.634;5.562;2023-04-08T08:47:55;102482.22;;;7.98;100.00
59513;BME280;45330;51.634;5.562;2023-04-08T08:50:21;102486.94;;;8.12;100.00
59513;BME280;45330;51.634;5.562;2023-04-08T08:52:50;102470.31;;;8.05;100.00
59513;BME280;45330;51.634;5.562;2023-04-08T08:55:20;102474.69;;;8.06;100.00
59513;BME280;45330;51.634;5.562;2023-04-08T08:57:49;102497.13;;;8.05;100.00
59513;BME280;45330;51.634;5.562;2023-04-08T09:00:15;102502.94;;;7.98;100.00
59513;BME280;45330;51.634;5.562;2023-04-08T09:02:42;102477.03;;;7.98;100.00
59513;BME280;45330;51.634;5.562;2023-04-08T09:05:07;102482.69;;;8.14;100.00
59513;BME280;45330;51.634;5.562;2023-04-08T09:07:36;102494.63;;;8.37;100.00
59513;BME280;45330;51.634;5.562;2023-04-08T09:10:05;102484.06;;;8.60;100.00
59513;BME280;45330;51.634;5.562;2023-04-08T09:12:30;102478.56;;;8.80;100.00
59513;BME280;45330;51.634;5.562;2023-04-08T09:15:03;102489.13;;;8.87;100.00
59513;BME280;45330;51.634;5.562;2023-04-08T09:17:37;102501.31;;;8.90;100.00
59513;BME280;45330;51.634;5.562;2023-04-08T09:22:55;102502.13;;;8.87;100.00
59513;BME280;45330;51.634;5.562;2023-04-08T09:25:25;102504.66;;;8.86;100.00
59513;BME280;45330;51.634;5.562;2023-04-08T09:27:51;102488.88;;;8.77;100.00
59513;BME280;45330;51.634;5.562;2023-04-08T09:30:17;102497.19;;;8.97;100.00
59513;BME280;45330;51.634;5.562;2023-04-08T09:32:46;102508.25;;;9.21;100.00
59513;BME280;45330;51.634;5.562;2023-04-08T09:35:12;102509.66;;;9.43;100.00
59513;BME280;45330;51.634;5.562;2023-04-08T09:37:37;102497.38;;;9.38;100.00
59513;BME280;45330;51.634;5.562;2023-04-08T09:40:03;102508.81;;;9.44;100.00
59513;BME280;45330;51.634;5.562;2023-04-08T09:42:29;102501.66;;;9.34;100.00
59513;BME280;45330;51.634;5.562;2023-04-08T09:44:56;102500.72;;;9.32;100.00
59513;BME280;45330;51.634;5.562;2023-04-08T09:47:26;102525.22;;;9.42;100.00
59513;BME280;45330;51.634;5.562;2023-04-08T09:49:55;102512.72;;;9.27;100.00
59513;BME280;45330;51.634;5.562;2023-04-08T09:52:38;102528.09;;;9.53;100.00
59513;BME280;45330;51.634;5.562;2023-04-08T09:55:08;102508.13;;;9.52;100.00
59513;BME280;45330;51.634;5.562;2023-04-08T10:00:11;102524.25;;;9.72;100.00
59513;BME280;45330;51.634;5.562;2023-04-08T10:03:09;102526.50;;;9.93;100.00
59513;BME280;45330;51.634;5.562;2023-04-08T10:05:36;102529.19;;;9.98;100.00
59513;BME280;45330;51.634;5.562;2023-04-08T10:08:04;102501.78;;;10.13;100.00
59513;BME280;45330;51.634;5.562;2023-04-08T10:10:30;102517.31;;;10.47;100.00
59513;BME280;45330;51.634;5.562;2023-04-08T10:12:56;102503.88;;;10.70;100.00
59513;BME280;45330;51.634;5.562;2023-04-08T10:15:29;102532.97;;;10.91;100.00
59513;BME280;45330;51.634;5.562;2023-04-08T10:20:47;102526.63;;;10.78;100.00
59513;BME280;45330;51.634;5.562;2023-04-08T10:23:17;102521.31;;;10.74;100.00
59513;BME280;45330;51.634;5.562;2023-04-08T10:25:45;102526.38;;;11.10;100.00
59513;BME280;45330;51.634;5.562;2023-04-08T10:30:37;102511.06;;;11.29;100.00
59513;BME280;45330;51.634;5.562;2023-04-08T10:33:12;102489.22;;;11.21;100.00
59513;BME280;45330;51.634;5.562;2023-04-08T10:35:45;102507.28;;;11.10;100.00
59513;BME280;45330;51.634;5.562;2023-04-08T10:38:12;102481.47;;;10.76;100.00
59513;BME280;45330;51.634;5.562;2023-04-08T10:40:39;102485.28;;;10.51;100.00
59513;BME280;45330;51.634;5.562;2023-04-08T10:43:09;102481.91;;;10.16;100.00
59513;BME280;45330;51.634;5.562;2023-04-08T10:45:35;102498.66;;;9.89;100.00
59513;BME280;45330;51.634;5.562;2023-04-08T10:48:15;102499.28;;;9.80;100.00
59513;BME280;45330;51.634;5.562;2023-04-08T10:50:42;102476.41;;;9.64;100.00
59513;BME280;45330;51.634;5.562;2023-04-08T10:53:09;102488.41;;;9.60;100.00
59513;BME280;45330;51.634;5.562;2023-04-08T10:55:35;102486.78;;;9.64;100.00
59513;BME280;45330;51.634;5.562;2023-04-08T10:58:08;102474.59;;;9.61;100.00
59513;BME280;45330;51.634;5.562;2023-04-08T11:00:39;102485.00;;;9.61;100.00
59513;BME280;45330;51.634;5.562;2023-04-08T11:03:09;102491.06;;;9.61;100.00
59513;BME280;45330;51.634;5.562;2023-04-08T11:05:36;102472.56;;;9.49;100.00
59513;BME280;45330;51.634;5.562;2023-04-08T11:08:03;102471.00;;;9.56;100.00
59513;BME280;45330;51.634;5.562;2023-04-08T11:10:29;102486.00;;;9.66;100.00
59513;BME280;45330;51.634;5.562;2023-04-08T11:12:55;102492.91;;;9.67;100.00
59513;BME280;45330;51.634;5.562;2023-04-08T11:15:22;102476.22;;;9.57;100.00
59513;BME280;45330;51.634;5.562;2023-04-08T11:17:48;102498.16;;;9.69;100.00
59513;BME280;45330;51.634;5.562;2023-04-08T11:20:14;102492.75;;;9.59;100.00
59513;BME280;45330;51.634;5.562;2023-04-08T11:22:40;102490.22;;;9.63;100.00
59513;BME280;45330;51.634;5.562;2023-04-08T11:25:08;102457.69;;;9.43;100.00
59513;BME280;45330;51.634;5.562;2023-04-08T11:27:35;102489.72;;;9.77;100.00
59513;BME280;45330;51.634;5.562;2023-04-08T11:30:01;102474.13;;;9.77;100.00
59513;BME280;45330;51.634;5.562;2023-04-08T11:32:27;102492.22;;;9.74;100.00
59513;BME280;45330;51.634;5.562;2023-04-08T11:34:53;102491.50;;;9.80;100.00
59513;BME280;45330;51.634;5.562;2023-04-08T11:37:19;102481.56;;;10.00;100.00
59513;BME280;45330;51.634;5.562;2023-04-08T11:39:45;102477.25;;;10.01;100.00
59513;BME280;45330;51.634;5.562;2023-04-08T11:42:27;102487.88;;;10.10;100.00
59513;BME280;45330;51.634;5.562;2023-04-08T11:44:53;102480.16;;;10.15;100.00
59513;BME280;45330;51.634;5.562;2023-04-08T11:47:40;102465.47;;;10.18;100.00
59513;BME280;45330;51.634;5.562;2023-04-08T11:50:06;102461.59;;;10.37;100.00
59513;BME280;45330;51.634;5.562;2023-04-08T11:52:44;102470.75;;;10.61;100.00
59513;BME280;45330;51.634;5.562;2023-04-08T11:55:27;102464.13;;;10.78;100.00
59513;BME280;45330;51.634;5.562;2023-04-08T11:57:54;102459.03;;;10.83;100.00
59513;BME280;45330;51.634;5.562;2023-04-08T12:00:20;102478.47;;;11.02;100.00
59513;BME280;45330;51.634;5.562;2023-04-08T12:02:46;102473.41;;;11.10;100.00
59513;BME280;45330;51.634;5.562;2023-04-08T12:05:13;102466.47;;;11.10;100.00
59513;BME280;45330;51.634;5.562;2023-04-08T12:07:38;102461.50;;;11.26;100.00
59513;BME280;45330;51.634;5.562;2023-04-08T12:10:04;102466.94;;;11.38;100.00
59513;BME280;45330;51.634;5.562;2023-04-08T12:12:30;102469.06;;;11.62;100.00
59513;BME280;45330;51.634;5.562;2023-04-08T12:14:56;102447.50;;;11.74;100.00
59513;BME280;45330;51.634;5.562;2023-04-08T12:17:21;102454.97;;;12.08;100.00
59513;BME280;45330;51.634;5.562;2023-04-08T12:19:46;102442.63;;;12.65;100.00
59513;BME280;45330;51.634;5.562;2023-04-08T12:22:12;102458.69;;;13.05;100.00
59513;BME280;45330;51.634;5.562;2023-04-08T12:24:37;102467.56;;;13.21;100.00
59513;BME280;45330;51.634;5.562;2023-04-08T12:27:02;102466.13;;;13.55;100.00
59513;BME280;45330;51.634;5.562;2023-04-08T12:29:29;102461.00;;;13.71;94.48
59513;BME280;45330;51.634;5.562;2023-04-08T12:31:55;102470.69;;;13.83;80.94
59513;BME280;45330;51.634;5.562;2023-04-08T12:34:21;102449.84;;;13.95;81.00
59513;BME280;45330;51.634;5.562;2023-04-08T12:36:46;102464.75;;;14.15;73.93
59513;BME280;45330;51.634;5.562;2023-04-08T12:39:13;102470.97;;;14.35;74.79
59513;BME280;45330;51.634;5.562;2023-04-08T12:41:38;102454.34;;;14.26;71.62
59513;BME280;45330;51.634;5.562;2023-04-08T12:44:04;102444.78;;;14.31;81.98
59513;BME280;45330;51.634;5.562;2023-04-08T12:46:29;102450.00;;;14.32;74.24
59513;BME280;45330;51.634;5.562;2023-04-08T12:48:55;102463.97;;;14.31;66.82
59513;BME280;45330;51.634;5.562;2023-04-08T12:51:20;102458.63;;;14.08;63.96
59513;BME280;45330;51.634;5.562;2023-04-08T12:53:46;102450.78;;;14.08;65.00
59513;BME280;45330;51.634;5.562;2023-04-08T12:56:11;102453.41;;;14.13;65.09
59513;BME280;45330;51.634;5.562;2023-04-08T12:58:37;102463.09;;;14.28;64.10
59513;BME280;45330;51.634;5.562;2023-04-08T13:01:02;102457.81;;;14.24;63.90